Aviation Digital Data Service (ADDS)

Output produced by METARs form (1915 UTC 09 December 2016)
found at http://aviationweather.gov/adds/metars/
 
KILG 091739Z 0918/1018 29015G25KT P6SM BKN050 
     FM092200 29009KT P6SM SCT050 
     TEMPO 1001/1003 BKN050 
     FM100900 29009KT P6SM FEW050 BKN200